sensor_id;sensor_type;location;lat;lon;timestamp;P1;durP1;ratioP1;P2;durP2;ratioP2
73476;SDS011;61713;51.034;13.756;2022-09-17T00:00:42;4.40;;;1.73;;
73476;SDS011;61713;51.034;13.756;2022-09-17T00:03:08;2.90;;;1.40;;
73476;SDS011;61713;51.034;13.756;2022-09-17T00:05:34;4.75;;;1.40;;
73476;SDS011;61713;51.034;13.756;2022-09-17T00:08:01;3.70;;;1.40;;
73476;SDS011;61713;51.034;13.756;2022-09-17T00:10:29;4.63;;;1.80;;
73476;SDS011;61713;51.034;13.756;2022-09-17T00:12:55;3.88;;;1.60;;
73476;SDS011;61713;51.034;13.756;2022-09-17T00:15:20;5.05;;;1.70;;
73476;SDS011;61713;51.034;13.756;2022-09-17T00:17:46;4.68;;;1.63;;
73476;SDS011;61713;51.034;13.756;2022-09-17T00:20:11;5.63;;;1.60;;
73476;SDS011;61713;51.034;13.756;2022-09-17T00:22:37;3.67;;;1.20;;
73476;SDS011;61713;51.034;13.756;2022-09-17T00:25:04;5.67;;;1.70;;
73476;SDS011;61713;51.034;13.756;2022-09-17T00:27:31;4.93;;;1.50;;
73476;SDS011;61713;51.034;13.756;2022-09-17T00:29:56;3.58;;;1.50;;
73476;SDS011;61713;51.034;13.756;2022-09-17T00:32:22;4.65;;;1.60;;
73476;SDS011;61713;51.034;13.756;2022-09-17T00:34:48;5.10;;;1.60;;
73476;SDS011;61713;51.034;13.756;2022-09-17T00:37:16;4.82;;;1.70;;
73476;SDS011;61713;51.034;13.756;2022-09-17T00:39:42;4.53;;;1.70;;
73476;SDS011;61713;51.034;13.756;2022-09-17T00:42:08;3.23;;;1.57;;
73476;SDS011;61713;51.034;13.756;2022-09-17T00:47:31;3.35;;;1.52;;
73476;SDS011;61713;51.034;13.756;2022-09-17T00:50:01;4.20;;;1.67;;
73476;SDS011;61713;51.034;13.756;2022-09-17T00:52:36;4.60;;;1.65;;
73476;SDS011;61713;51.034;13.756;2022-09-17T00:55:08;4.63;;;1.65;;
73476;SDS011;61713;51.034;13.756;2022-09-17T00:57:40;3.08;;;1.30;;
73476;SDS011;61713;51.034;13.756;2022-09-17T01:00:06;3.15;;;1.33;;
73476;SDS011;61713;51.034;13.756;2022-09-17T01:02:33;3.92;;;1.33;;
73476;SDS011;61713;51.034;13.756;2022-09-17T01:04:59;2.50;;;1.00;;
73476;SDS011;61713;51.034;13.756;2022-09-17T01:13:27;3.63;;;1.20;;
73476;SDS011;61713;51.034;13.756;2022-09-17T01:16:05;4.25;;;1.45;;
73476;SDS011;61713;51.034;13.756;2022-09-17T01:18:55;3.03;;;1.20;;
73476;SDS011;61713;51.034;13.756;2022-09-17T01:24:00;4.40;;;1.20;;
73476;SDS011;61713;51.034;13.756;2022-09-17T01:26:37;2.72;;;1.30;;
73476;SDS011;61713;51.034;13.756;2022-09-17T01:40:26;2.42;;;1.30;;
73476;SDS011;61713;51.034;13.756;2022-09-17T01:43:02;4.65;;;1.63;;
73476;SDS011;61713;51.034;13.756;2022-09-17T01:45:49;4.43;;;1.40;;
73476;SDS011;61713;51.034;13.756;2022-09-17T01:48:17;3.17;;;1.25;;
73476;SDS011;61713;51.034;13.756;2022-09-17T01:53:43;4.80;;;1.30;;
73476;SDS011;61713;51.034;13.756;2022-09-17T01:56:36;4.65;;;1.38;;
73476;SDS011;61713;51.034;13.756;2022-09-17T01:59:15;4.70;;;1.30;;
73476;SDS011;61713;51.034;13.756;2022-09-17T02:01:46;3.92;;;1.23;;
73476;SDS011;61713;51.034;13.756;2022-09-17T02:04:18;3.15;;;1.40;;
73476;SDS011;61713;51.034;13.756;2022-09-17T02:06:59;2.50;;;1.10;;
73476;SDS011;61713;51.034;13.756;2022-09-17T02:09:31;4.22;;;1.40;;
73476;SDS011;61713;51.034;13.756;2022-09-17T02:12:03;2.75;;;1.20;;
73476;SDS011;61713;51.034;13.756;2022-09-17T02:14:38;4.35;;;1.45;;
73476;SDS011;61713;51.034;13.756;2022-09-17T02:17:31;5.10;;;1.42;;
73476;SDS011;61713;51.034;13.756;2022-09-17T02:19:58;2.10;;;0.95;;
73476;SDS011;61713;51.034;13.756;2022-09-17T02:22:46;2.28;;;1.08;;
73476;SDS011;61713;51.034;13.756;2022-09-17T02:25:37;3.63;;;1.20;;
73476;SDS011;61713;51.034;13.756;2022-09-17T02:28:13;4.13;;;1.50;;
73476;SDS011;61713;51.034;13.756;2022-09-17T02:30:40;3.97;;;1.25;;
73476;SDS011;61713;51.034;13.756;2022-09-17T02:33:06;2.93;;;1.10;;
73476;SDS011;61713;51.034;13.756;2022-09-17T02:35:35;3.28;;;1.40;;
73476;SDS011;61713;51.034;13.756;2022-09-17T02:38:01;3.70;;;1.40;;
73476;SDS011;61713;51.034;13.756;2022-09-17T02:40:28;4.78;;;1.40;;
73476;SDS011;61713;51.034;13.756;2022-09-17T02:46:02;3.00;;;1.30;;
73476;SDS011;61713;51.034;13.756;2022-09-17T02:48:39;2.50;;;1.10;;
73476;SDS011;61713;51.034;13.756;2022-09-17T02:51:40;4.05;;;1.20;;
73476;SDS011;61713;51.034;13.756;2022-09-17T02:56:45;3.85;;;1.40;;
73476;SDS011;61713;51.034;13.756;2022-09-17T02:59:22;3.35;;;1.25;;
73476;SDS011;61713;51.034;13.756;2022-09-17T03:02:04;3.60;;;1.10;;
73476;SDS011;61713;51.034;13.756;2022-09-17T03:04:52;5.50;;;1.53;;
73476;SDS011;61713;51.034;13.756;2022-09-17T03:07:19;3.17;;;1.17;;
73476;SDS011;61713;51.034;13.756;2022-09-17T03:09:46;4.25;;;1.30;;
73476;SDS011;61713;51.034;13.756;2022-09-17T03:12:12;5.38;;;1.42;;
73476;SDS011;61713;51.034;13.756;2022-09-17T03:14:39;4.20;;;1.08;;
73476;SDS011;61713;51.034;13.756;2022-09-17T03:17:04;2.35;;;1.23;;
73476;SDS011;61713;51.034;13.756;2022-09-17T03:19:30;3.85;;;1.20;;
73476;SDS011;61713;51.034;13.756;2022-09-17T03:21:55;2.37;;;1.37;;
73476;SDS011;61713;51.034;13.756;2022-09-17T03:24:21;4.03;;;1.20;;
73476;SDS011;61713;51.034;13.756;2022-09-17T03:26:46;4.47;;;1.20;;
73476;SDS011;61713;51.034;13.756;2022-09-17T03:29:13;2.78;;;1.20;;
73476;SDS011;61713;51.034;13.756;2022-09-17T03:31:39;3.97;;;1.40;;
73476;SDS011;61713;51.034;13.756;2022-09-17T03:34:05;3.25;;;1.13;;
73476;SDS011;61713;51.034;13.756;2022-09-17T03:36:31;3.83;;;1.20;;
73476;SDS011;61713;51.034;13.756;2022-09-17T03:38:57;3.13;;;1.30;;
73476;SDS011;61713;51.034;13.756;2022-09-17T03:41:23;4.65;;;1.38;;
73476;SDS011;61713;51.034;13.756;2022-09-17T03:43:49;4.07;;;1.38;;
73476;SDS011;61713;51.034;13.756;2022-09-17T03:46:15;4.40;;;1.45;;
73476;SDS011;61713;51.034;13.756;2022-09-17T03:48:40;3.70;;;1.23;;
73476;SDS011;61713;51.034;13.756;2022-09-17T03:51:06;5.25;;;1.48;;
73476;SDS011;61713;51.034;13.756;2022-09-17T03:53:31;3.92;;;1.30;;
73476;SDS011;61713;51.034;13.756;2022-09-17T03:55:58;6.07;;;1.50;;
73476;SDS011;61713;51.034;13.756;2022-09-17T03:58:25;4.05;;;1.50;;
73476;SDS011;61713;51.034;13.756;2022-09-17T04:00:51;2.97;;;1.30;;
73476;SDS011;61713;51.034;13.756;2022-09-17T04:03:18;3.13;;;1.42;;
73476;SDS011;61713;51.034;13.756;2022-09-17T04:05:45;4.63;;;1.60;;
73476;SDS011;61713;51.034;13.756;2022-09-17T04:08:10;4.60;;;1.70;;
73476;SDS011;61713;51.034;13.756;2022-09-17T04:10:36;3.27;;;1.33;;
73476;SDS011;61713;51.034;13.756;2022-09-17T04:13:02;3.97;;;1.20;;
73476;SDS011;61713;51.034;13.756;2022-09-17T04:15:27;4.27;;;1.77;;
73476;SDS011;61713;51.034;13.756;2022-09-17T04:17:56;4.53;;;1.40;;
73476;SDS011;61713;51.034;13.756;2022-09-17T04:20:22;4.93;;;1.55;;
73476;SDS011;61713;51.034;13.756;2022-09-17T04:22:49;2.95;;;1.50;;
73476;SDS011;61713;51.034;13.756;2022-09-17T04:25:14;3.17;;;1.15;;
73476;SDS011;61713;51.034;13.756;2022-09-17T04:27:40;3.58;;;1.40;;
73476;SDS011;61713;51.034;13.756;2022-09-17T04:30:05;4.85;;;1.70;;
73476;SDS011;61713;51.034;13.756;2022-09-17T04:32:31;4.65;;;1.55;;
73476;SDS011;61713;51.034;13.756;2022-09-17T04:34:57;2.17;;;1.17;;
73476;SDS011;61713;51.034;13.756;2022-09-17T04:37:23;5.77;;;1.80;;
73476;SDS011;61713;51.034;13.756;2022-09-17T04:39:49;4.57;;;1.70;;
73476;SDS011;61713;51.034;13.756;2022-09-17T04:42:15;4.87;;;1.57;;
73476;SDS011;61713;51.034;13.756;2022-09-17T04:44:41;3.83;;;1.53;;
73476;SDS011;61713;51.034;13.756;2022-09-17T04:47:06;3.17;;;1.30;;
73476;SDS011;61713;51.034;13.756;2022-09-17T04:49:32;3.33;;;1.40;;
73476;SDS011;61713;51.034;13.756;2022-09-17T04:51:57;3.33;;;1.53;;
73476;SDS011;61713;51.034;13.756;2022-09-17T04:54:22;3.78;;;1.70;;
73476;SDS011;61713;51.034;13.756;2022-09-17T04:56:48;3.00;;;1.38;;
73476;SDS011;61713;51.034;13.756;2022-09-17T04:59:14;3.30;;;1.70;;
73476;SDS011;61713;51.034;13.756;2022-09-17T05:01:39;4.03;;;1.77;;
73476;SDS011;61713;51.034;13.756;2022-09-17T05:04:06;3.28;;;1.70;;
73476;SDS011;61713;51.034;13.756;2022-09-17T05:06:31;5.10;;;2.00;;
73476;SDS011;61713;51.034;13.756;2022-09-17T05:08:57;3.07;;;1.60;;
73476;SDS011;61713;51.034;13.756;2022-09-17T05:11:22;3.53;;;1.63;;
73476;SDS011;61713;51.034;13.756;2022-09-17T05:13:48;4.77;;;1.90;;
73476;SDS011;61713;51.034;13.756;2022-09-17T05:16:13;4.47;;;1.80;;
73476;SDS011;61713;51.034;13.756;2022-09-17T05:18:39;2.93;;;1.60;;
73476;SDS011;61713;51.034;13.756;2022-09-17T05:21:04;5.28;;;1.67;;
73476;SDS011;61713;51.034;13.756;2022-09-17T05:23:30;4.10;;;1.95;;
73476;SDS011;61713;51.034;13.756;2022-09-17T05:25:58;2.63;;;1.73;;
73476;SDS011;61713;51.034;13.756;2022-09-17T05:28:24;2.40;;;1.73;;
73476;SDS011;61713;51.034;13.756;2022-09-17T05:30:50;2.63;;;1.67;;
73476;SDS011;61713;51.034;13.756;2022-09-17T05:33:15;3.80;;;1.75;;
73476;SDS011;61713;51.034;13.756;2022-09-17T05:35:42;3.30;;;1.42;;
73476;SDS011;61713;51.034;13.756;2022-09-17T05:38:08;3.78;;;1.77;;
73476;SDS011;61713;51.034;13.756;2022-09-17T05:40:34;3.67;;;1.70;;
73476;SDS011;61713;51.034;13.756;2022-09-17T05:43:02;1.75;;;1.23;;
73476;SDS011;61713;51.034;13.756;2022-09-17T05:45:29;2.33;;;1.58;;
73476;SDS011;61713;51.034;13.756;2022-09-17T05:47:57;2.33;;;1.48;;
73476;SDS011;61713;51.034;13.756;2022-09-17T05:50:26;3.13;;;1.80;;
73476;SDS011;61713;51.034;13.756;2022-09-17T05:52:52;1.80;;;1.30;;
73476;SDS011;61713;51.034;13.756;2022-09-17T05:55:19;2.20;;;1.43;;
73476;SDS011;61713;51.034;13.756;2022-09-17T05:57:46;3.45;;;1.50;;
73476;SDS011;61713;51.034;13.756;2022-09-17T06:00:15;2.35;;;1.48;;
73476;SDS011;61713;51.034;13.756;2022-09-17T06:02:41;2.53;;;1.40;;
73476;SDS011;61713;51.034;13.756;2022-09-17T06:05:06;2.17;;;1.33;;
73476;SDS011;61713;51.034;13.756;2022-09-17T06:07:35;2.28;;;1.55;;
73476;SDS011;61713;51.034;13.756;2022-09-17T06:10:03;2.78;;;1.65;;
73476;SDS011;61713;51.034;13.756;2022-09-17T06:12:30;2.58;;;1.35;;
73476;SDS011;61713;51.034;13.756;2022-09-17T06:14:55;2.43;;;1.50;;
73476;SDS011;61713;51.034;13.756;2022-09-17T06:17:21;2.07;;;1.40;;
73476;SDS011;61713;51.034;13.756;2022-09-17T06:19:46;3.20;;;1.50;;
73476;SDS011;61713;51.034;13.756;2022-09-17T06:22:12;2.50;;;1.30;;
73476;SDS011;61713;51.034;13.756;2022-09-17T06:24:37;2.53;;;1.20;;
73476;SDS011;61713;51.034;13.756;2022-09-17T06:27:03;2.10;;;1.30;;
73476;SDS011;61713;51.034;13.756;2022-09-17T06:29:29;1.35;;;1.00;;
73476;SDS011;61713;51.034;13.756;2022-09-17T06:31:54;2.00;;;1.00;;
73476;SDS011;61713;51.034;13.756;2022-09-17T06:34:20;2.30;;;1.17;;
73476;SDS011;61713;51.034;13.756;2022-09-17T06:36:47;2.13;;;1.10;;
73476;SDS011;61713;51.034;13.756;2022-09-17T06:39:13;1.48;;;1.00;;
73476;SDS011;61713;51.034;13.756;2022-09-17T06:41:40;1.07;;;0.93;;
73476;SDS011;61713;51.034;13.756;2022-09-17T06:44:07;1.73;;;1.00;;
73476;SDS011;61713;51.034;13.756;2022-09-17T06:46:32;1.15;;;0.93;;
73476;SDS011;61713;51.034;13.756;2022-09-17T06:48:58;1.00;;;0.90;;
73476;SDS011;61713;51.034;13.756;2022-09-17T06:51:23;3.10;;;1.70;;
73476;SDS011;61713;51.034;13.756;2022-09-17T06:53:49;0.90;;;0.80;;
73476;SDS011;61713;51.034;13.756;2022-09-17T06:56:14;0.87;;;0.87;;
73476;SDS011;61713;51.034;13.756;2022-09-17T06:58:40;1.97;;;0.90;;
73476;SDS011;61713;51.034;13.756;2022-09-17T07:01:07;0.80;;;0.77;;
73476;SDS011;61713;51.034;13.756;2022-09-17T07:03:34;0.90;;;0.80;;
73476;SDS011;61713;51.034;13.756;2022-09-17T07:05:59;0.63;;;0.63;;
73476;SDS011;61713;51.034;13.756;2022-09-17T07:08:25;1.23;;;0.80;;
73476;SDS011;61713;51.034;13.756;2022-09-17T07:10:54;1.35;;;0.80;;
73476;SDS011;61713;51.034;13.756;2022-09-17T07:13:23;1.02;;;0.80;;
73476;SDS011;61713;51.034;13.756;2022-09-17T07:15:52;2.40;;;1.10;;
73476;SDS011;61713;51.034;13.756;2022-09-17T07:18:18;1.05;;;0.90;;
73476;SDS011;61713;51.034;13.756;2022-09-17T07:20:50;1.10;;;1.00;;
73476;SDS011;61713;51.034;13.756;2022-09-17T07:23:21;1.10;;;1.00;;
73476;SDS011;61713;51.034;13.756;2022-09-17T07:25:51;1.38;;;1.00;;
73476;SDS011;61713;51.034;13.756;2022-09-17T07:28:17;2.50;;;1.70;;
73476;SDS011;61713;51.034;13.756;2022-09-17T07:30:43;3.73;;;2.13;;
73476;SDS011;61713;51.034;13.756;2022-09-17T07:33:09;5.30;;;2.00;;
73476;SDS011;61713;51.034;13.756;2022-09-17T07:35:34;4.00;;;2.60;;
73476;SDS011;61713;51.034;13.756;2022-09-17T07:37:59;4.77;;;2.73;;
73476;SDS011;61713;51.034;13.756;2022-09-17T07:40:25;5.32;;;3.20;;
73476;SDS011;61713;51.034;13.756;2022-09-17T07:42:50;6.32;;;3.78;;
73476;SDS011;61713;51.034;13.756;2022-09-17T07:45:16;8.27;;;4.40;;
73476;SDS011;61713;51.034;13.756;2022-09-17T07:47:41;8.20;;;4.50;;
73476;SDS011;61713;51.034;13.756;2022-09-17T07:50:08;8.02;;;4.05;;
73476;SDS011;61713;51.034;13.756;2022-09-17T07:52:34;7.85;;;3.85;;
73476;SDS011;61713;51.034;13.756;2022-09-17T07:55:00;7.47;;;4.23;;
73476;SDS011;61713;51.034;13.756;2022-09-17T07:57:25;8.37;;;4.83;;
73476;SDS011;61713;51.034;13.756;2022-09-17T07:59:51;7.80;;;3.90;;
73476;SDS011;61713;51.034;13.756;2022-09-17T08:02:16;6.32;;;3.67;;
73476;SDS011;61713;51.034;13.756;2022-09-17T08:04:42;9.27;;;4.95;;
73476;SDS011;61713;51.034;13.756;2022-09-17T08:07:09;11.15;;;4.97;;
73476;SDS011;61713;51.034;13.756;2022-09-17T08:09:36;5.15;;;2.78;;
73476;SDS011;61713;51.034;13.756;2022-09-17T08:12:02;9.88;;;4.30;;
73476;SDS011;61713;51.034;13.756;2022-09-17T08:14:27;6.40;;;3.03;;
73476;SDS011;61713;51.034;13.756;2022-09-17T08:16:53;9.32;;;4.05;;
73476;SDS011;61713;51.034;13.756;2022-09-17T08:19:18;8.67;;;4.20;;
73476;SDS011;61713;51.034;13.756;2022-09-17T08:21:45;8.68;;;3.63;;
73476;SDS011;61713;51.034;13.756;2022-09-17T08:24:10;7.80;;;3.35;;
73476;SDS011;61713;51.034;13.756;2022-09-17T08:26:36;11.00;;;4.13;;
73476;SDS011;61713;51.034;13.756;2022-09-17T08:29:03;8.80;;;3.90;;
73476;SDS011;61713;51.034;13.756;2022-09-17T08:31:28;7.38;;;3.72;;
73476;SDS011;61713;51.034;13.756;2022-09-17T08:33:54;8.43;;;3.65;;
73476;SDS011;61713;51.034;13.756;2022-09-17T08:36:20;8.90;;;3.47;;
73476;SDS011;61713;51.034;13.756;2022-09-17T08:38:46;8.00;;;2.92;;
73476;SDS011;61713;51.034;13.756;2022-09-17T08:41:21;7.20;;;2.47;;
73476;SDS011;61713;51.034;13.756;2022-09-17T08:47:03;7.65;;;3.47;;
73476;SDS011;61713;51.034;13.756;2022-09-17T08:49:46;12.50;;;3.63;;
73476;SDS011;61713;51.034;13.756;2022-09-17T08:52:22;9.02;;;3.83;;
73476;SDS011;61713;51.034;13.756;2022-09-17T08:55:19;9.15;;;3.50;;
73476;SDS011;61713;51.034;13.756;2022-09-17T09:00:56;12.35;;;3.95;;
73476;SDS011;61713;51.034;13.756;2022-09-17T09:03:54;8.43;;;3.20;;
73476;SDS011;61713;51.034;13.756;2022-09-17T09:06:33;7.75;;;3.53;;
73476;SDS011;61713;51.034;13.756;2022-09-17T09:09:09;10.73;;;3.45;;
73476;SDS011;61713;51.034;13.756;2022-09-17T09:11:38;8.30;;;2.90;;
73476;SDS011;61713;51.034;13.756;2022-09-17T09:14:08;7.28;;;3.13;;
73476;SDS011;61713;51.034;13.756;2022-09-17T09:16:36;6.68;;;2.22;;
73476;SDS011;61713;51.034;13.756;2022-09-17T09:19:12;6.00;;;2.80;;
73476;SDS011;61713;51.034;13.756;2022-09-17T09:22:05;6.90;;;2.63;;
73476;SDS011;61713;51.034;13.756;2022-09-17T09:24:40;8.88;;;2.65;;
73476;SDS011;61713;51.034;13.756;2022-09-17T09:27:18;7.00;;;2.30;;
73476;SDS011;61713;51.034;13.756;2022-09-17T09:30:01;6.63;;;2.20;;
73476;SDS011;61713;51.034;13.756;2022-09-17T09:35:17;5.68;;;2.33;;
73476;SDS011;61713;51.034;13.756;2022-09-17T09:37:52;5.85;;;1.88;;
73476;SDS011;61713;51.034;13.756;2022-09-17T09:40:35;6.07;;;2.35;;
73476;SDS011;61713;51.034;13.756;2022-09-17T09:43:12;4.10;;;1.60;;
73476;SDS011;61713;51.034;13.756;2022-09-17T09:48:32;3.63;;;1.75;;
73476;SDS011;61713;51.034;13.756;2022-09-17T09:57:00;5.17;;;1.60;;
73476;SDS011;61713;51.034;13.756;2022-09-17T09:59:31;6.90;;;2.00;;
73476;SDS011;61713;51.034;13.756;2022-09-17T10:01:59;5.73;;;2.40;;
73476;SDS011;61713;51.034;13.756;2022-09-17T10:04:26;5.57;;;1.70;;
73476;SDS011;61713;51.034;13.756;2022-09-17T10:06:53;5.18;;;2.13;;
73476;SDS011;61713;51.034;13.756;2022-09-17T10:09:24;7.45;;;1.92;;
73476;SDS011;61713;51.034;13.756;2022-09-17T10:14:40;4.93;;;1.77;;
73476;SDS011;61713;51.034;13.756;2022-09-17T10:17:11;4.05;;;1.65;;
73476;SDS011;61713;51.034;13.756;2022-09-17T10:22:37;3.88;;;1.23;;
73476;SDS011;61713;51.034;13.756;2022-09-17T10:25:04;4.35;;;1.30;;
73476;SDS011;61713;51.034;13.756;2022-09-17T10:27:49;3.35;;;1.20;;
73476;SDS011;61713;51.034;13.756;2022-09-17T10:30:15;4.95;;;1.65;;
73476;SDS011;61713;51.034;13.756;2022-09-17T10:32:42;10.75;;;3.20;;
73476;SDS011;61713;51.034;13.756;2022-09-17T10:37:44;5.97;;;1.30;;
73476;SDS011;61713;51.034;13.756;2022-09-17T10:42:42;11.70;;;6.22;;
73476;SDS011;61713;51.034;13.756;2022-09-17T10:45:10;2.93;;;1.27;;
73476;SDS011;61713;51.034;13.756;2022-09-17T10:47:48;5.20;;;1.43;;
73476;SDS011;61713;51.034;13.756;2022-09-17T10:50:15;4.80;;;1.63;;
73476;SDS011;61713;51.034;13.756;2022-09-17T10:52:54;6.07;;;1.63;;
73476;SDS011;61713;51.034;13.756;2022-09-17T10:55:32;4.47;;;1.60;;
73476;SDS011;61713;51.034;13.756;2022-09-17T10:58:16;5.28;;;1.55;;
73476;SDS011;61713;51.034;13.756;2022-09-17T11:00:56;5.03;;;1.50;;
73476;SDS011;61713;51.034;13.756;2022-09-17T11:06:57;5.93;;;1.88;;
73476;SDS011;61713;51.034;13.756;2022-09-17T11:09:50;3.15;;;1.30;;
73476;SDS011;61713;51.034;13.756;2022-09-17T11:12:29;4.38;;;1.33;;
73476;SDS011;61713;51.034;13.756;2022-09-17T11:15:13;3.20;;;1.15;;
73476;SDS011;61713;51.034;13.756;2022-09-17T11:18:00;4.15;;;1.33;;
73476;SDS011;61713;51.034;13.756;2022-09-17T11:20:43;4.80;;;1.40;;
73476;SDS011;61713;51.034;13.756;2022-09-17T11:25:54;4.95;;;1.20;;
73476;SDS011;61713;51.034;13.756;2022-09-17T11:28:30;5.35;;;1.60;;
73476;SDS011;61713;51.034;13.756;2022-09-17T11:31:20;4.93;;;1.63;;
73476;SDS011;61713;51.034;13.756;2022-09-17T11:33:52;5.10;;;1.77;;
73476;SDS011;61713;51.034;13.756;2022-09-17T11:36:24;3.75;;;1.33;;
73476;SDS011;61713;51.034;13.756;2022-09-17T11:38:58;4.82;;;1.80;;
73476;SDS011;61713;51.034;13.756;2022-09-17T11:41:45;4.85;;;1.80;;
73476;SDS011;61713;51.034;13.756;2022-09-17T11:46:51;4.70;;;1.60;;
73476;SDS011;61713;51.034;13.756;2022-09-17T11:49:33;5.20;;;1.38;;
73476;SDS011;61713;51.034;13.756;2022-09-17T11:52:05;4.57;;;1.50;;
73476;SDS011;61713;51.034;13.756;2022-09-17T11:54:42;3.13;;;0.93;;
73476;SDS011;61713;51.034;13.756;2022-09-17T11:57:24;2.88;;;1.40;;
73476;SDS011;61713;51.034;13.756;2022-09-17T12:00:00;3.92;;;1.83;;
73476;SDS011;61713;51.034;13.756;2022-09-17T12:02:40;5.97;;;2.08;;
73476;SDS011;61713;51.034;13.756;2022-09-17T12:05:32;4.63;;;1.93;;
73476;SDS011;61713;51.034;13.756;2022-09-17T12:08:24;5.20;;;2.30;;
73476;SDS011;61713;51.034;13.756;2022-09-17T12:11:05;5.55;;;1.90;;
73476;SDS011;61713;51.034;13.756;2022-09-17T12:13:41;6.00;;;2.03;;
73476;SDS011;61713;51.034;13.756;2022-09-17T12:16:12;5.97;;;2.03;;
73476;SDS011;61713;51.034;13.756;2022-09-17T12:18:45;4.70;;;2.00;;
73476;SDS011;61713;51.034;13.756;2022-09-17T12:21:17;4.77;;;2.00;;
73476;SDS011;61713;51.034;13.756;2022-09-17T12:23:53;4.65;;;1.75;;
73476;SDS011;61713;51.034;13.756;2022-09-17T12:26:45;5.10;;;1.83;;
73476;SDS011;61713;51.034;13.756;2022-09-17T12:32:21;4.30;;;1.80;;
73476;SDS011;61713;51.034;13.756;2022-09-17T12:35:19;5.40;;;1.77;;
73476;SDS011;61713;51.034;13.756;2022-09-17T12:38:13;5.63;;;2.10;;
73476;SDS011;61713;51.034;13.756;2022-09-17T12:41:07;5.88;;;1.95;;
73476;SDS011;61713;51.034;13.756;2022-09-17T12:43:47;5.68;;;1.85;;
73476;SDS011;61713;51.034;13.756;2022-09-17T12:47:30;5.45;;;1.70;;
73476;SDS011;61713;51.034;13.756;2022-09-17T12:49:48;5.75;;;1.90;;
73476;SDS011;61713;51.034;13.756;2022-09-17T12:58:56;5.67;;;2.10;;
73476;SDS011;61713;51.034;13.756;2022-09-17T13:01:41;5.43;;;1.88;;
73476;SDS011;61713;51.034;13.756;2022-09-17T13:04:53;6.13;;;2.00;;
73476;SDS011;61713;51.034;13.756;2022-09-17T13:13:48;4.80;;;1.40;;
73476;SDS011;61713;51.034;13.756;2022-09-17T13:19:29;3.37;;;1.50;;
73476;SDS011;61713;51.034;13.756;2022-09-17T13:21:59;4.60;;;1.50;;
73476;SDS011;61713;51.034;13.756;2022-09-17T13:24:30;5.55;;;2.03;;
73476;SDS011;61713;51.034;13.756;2022-09-17T13:26:57;5.70;;;1.70;;
73476;SDS011;61713;51.034;13.756;2022-09-17T13:32:08;4.55;;;1.52;;
73476;SDS011;61713;51.034;13.756;2022-09-17T13:34:52;3.65;;;1.13;;
73476;SDS011;61713;51.034;13.756;2022-09-17T13:37:18;3.80;;;1.17;;
73476;SDS011;61713;51.034;13.756;2022-09-17T13:39:50;2.08;;;1.13;;
73476;SDS011;61713;51.034;13.756;2022-09-17T13:42:23;3.80;;;1.25;;
73476;SDS011;61713;51.034;13.756;2022-09-17T13:47:35;3.28;;;1.20;;
73476;SDS011;61713;51.034;13.756;2022-09-17T13:50:05;2.72;;;1.20;;
73476;SDS011;61713;51.034;13.756;2022-09-17T13:52:34;3.53;;;1.30;;
73476;SDS011;61713;51.034;13.756;2022-09-17T13:55:06;3.40;;;1.30;;
73476;SDS011;61713;51.034;13.756;2022-09-17T13:57:42;2.35;;;1.05;;
73476;SDS011;61713;51.034;13.756;2022-09-17T14:16:33;4.97;;;1.70;;
73476;SDS011;61713;51.034;13.756;2022-09-17T14:24:25;3.55;;;1.50;;
73476;SDS011;61713;51.034;13.756;2022-09-17T14:27:04;4.55;;;1.55;;
73476;SDS011;61713;51.034;13.756;2022-09-17T14:32:47;5.20;;;1.63;;
73476;SDS011;61713;51.034;13.756;2022-09-17T14:35:19;4.33;;;1.50;;
73476;SDS011;61713;51.034;13.756;2022-09-17T14:38:13;6.95;;;2.00;;
73476;SDS011;61713;51.034;13.756;2022-09-17T14:40:43;7.60;;;2.88;;
73476;SDS011;61713;51.034;13.756;2022-09-17T14:43:14;4.57;;;1.67;;
73476;SDS011;61713;51.034;13.756;2022-09-17T14:46:05;4.95;;;1.45;;
73476;SDS011;61713;51.034;13.756;2022-09-17T14:48:33;5.53;;;1.70;;
73476;SDS011;61713;51.034;13.756;2022-09-17T14:51:10;5.90;;;1.93;;
73476;SDS011;61713;51.034;13.756;2022-09-17T14:53:47;5.10;;;1.70;;
73476;SDS011;61713;51.034;13.756;2022-09-17T14:56:30;5.05;;;1.90;;
73476;SDS011;61713;51.034;13.756;2022-09-17T14:58:58;4.85;;;2.13;;
73476;SDS011;61713;51.034;13.756;2022-09-17T15:01:26;6.07;;;1.98;;
73476;SDS011;61713;51.034;13.756;2022-09-17T15:04:09;4.93;;;1.88;;
73476;SDS011;61713;51.034;13.756;2022-09-17T15:06:44;4.38;;;1.75;;
73476;SDS011;61713;51.034;13.756;2022-09-17T15:09:16;7.53;;;2.10;;
73476;SDS011;61713;51.034;13.756;2022-09-17T15:14:19;6.55;;;2.10;;
73476;SDS011;61713;51.034;13.756;2022-09-17T15:16:50;7.75;;;1.98;;
73476;SDS011;61713;51.034;13.756;2022-09-17T15:19:22;5.88;;;1.80;;
73476;SDS011;61713;51.034;13.756;2022-09-17T15:24:48;5.22;;;1.92;;
73476;SDS011;61713;51.034;13.756;2022-09-17T15:27:21;4.43;;;1.70;;
73476;SDS011;61713;51.034;13.756;2022-09-17T15:29:59;4.88;;;1.88;;
73476;SDS011;61713;51.034;13.756;2022-09-17T15:32:29;4.60;;;1.98;;
73476;SDS011;61713;51.034;13.756;2022-09-17T15:37:50;5.55;;;2.35;;
73476;SDS011;61713;51.034;13.756;2022-09-17T15:40:25;5.83;;;2.00;;
73476;SDS011;61713;51.034;13.756;2022-09-17T15:45:51;5.93;;;1.83;;
73476;SDS011;61713;51.034;13.756;2022-09-17T15:50:55;5.37;;;1.70;;
73476;SDS011;61713;51.034;13.756;2022-09-17T15:53:23;5.00;;;1.90;;
73476;SDS011;61713;51.034;13.756;2022-09-17T15:56:00;4.00;;;1.50;;
73476;SDS011;61713;51.034;13.756;2022-09-17T15:58:27;4.43;;;1.80;;
73476;SDS011;61713;51.034;13.756;2022-09-17T16:06:08;3.72;;;1.60;;
73476;SDS011;61713;51.034;13.756;2022-09-17T16:11:22;3.65;;;1.67;;
73476;SDS011;61713;51.034;13.756;2022-09-17T16:13:49;3.55;;;1.50;;
73476;SDS011;61713;51.034;13.756;2022-09-17T16:16:17;4.93;;;1.70;;
73476;SDS011;61713;51.034;13.756;2022-09-17T16:18:45;5.30;;;1.88;;
73476;SDS011;61713;51.034;13.756;2022-09-17T16:21:11;3.95;;;1.63;;
73476;SDS011;61713;51.034;13.756;2022-09-17T16:23:40;4.35;;;1.45;;
73476;SDS011;61713;51.034;13.756;2022-09-17T16:26:08;5.25;;;1.60;;
73476;SDS011;61713;51.034;13.756;2022-09-17T16:28:37;4.57;;;1.70;;
73476;SDS011;61713;51.034;13.756;2022-09-17T16:31:04;5.85;;;1.63;;
73476;SDS011;61713;51.034;13.756;2022-09-17T16:33:30;3.80;;;1.45;;
73476;SDS011;61713;51.034;13.756;2022-09-17T16:35:56;4.60;;;1.50;;
73476;SDS011;61713;51.034;13.756;2022-09-17T16:38:22;3.42;;;1.40;;
73476;SDS011;61713;51.034;13.756;2022-09-17T16:40:48;4.90;;;1.75;;
73476;SDS011;61713;51.034;13.756;2022-09-17T16:43:13;4.07;;;1.70;;
73476;SDS011;61713;51.034;13.756;2022-09-17T16:45:39;5.53;;;2.05;;
73476;SDS011;61713;51.034;13.756;2022-09-17T16:48:05;4.30;;;1.58;;
73476;SDS011;61713;51.034;13.756;2022-09-17T16:50:31;4.30;;;1.93;;
73476;SDS011;61713;51.034;13.756;2022-09-17T16:52:57;5.07;;;1.75;;
73476;SDS011;61713;51.034;13.756;2022-09-17T16:55:23;6.63;;;2.20;;
73476;SDS011;61713;51.034;13.756;2022-09-17T16:57:48;6.53;;;2.20;;
73476;SDS011;61713;51.034;13.756;2022-09-17T17:00:15;6.00;;;1.98;;
73476;SDS011;61713;51.034;13.756;2022-09-17T17:02:44;4.50;;;1.60;;
73476;SDS011;61713;51.034;13.756;2022-09-17T17:05:15;5.88;;;2.60;;
73476;SDS011;61713;51.034;13.756;2022-09-17T17:07:40;6.22;;;2.17;;
73476;SDS011;61713;51.034;13.756;2022-09-17T17:10:09;4.68;;;1.75;;
73476;SDS011;61713;51.034;13.756;2022-09-17T17:12:35;5.27;;;1.80;;
73476;SDS011;61713;51.034;13.756;2022-09-17T17:15:01;6.07;;;2.25;;